Time;durP1;ratioP1;P1;durP2;ratioP2;P2;SDS_P1;SDS_P2;PMS_P1;PMS_P2;Temp;Humidity;BMP_temperature;BMP_pressure;BME280_temperature;BME280_humidity;BME280_pressure;Samples;Min_cycle;Max_cycle;Signal;HPM_P1;HPM_P2
2023/08/01 00:01:19;;;;;;;2.70;2.50;;;19.70;98.20;;;;;;959033;146;27300;-74
2023/08/01 00:03:46;;;;;;;2.72;2.52;;;19.80;98.40;;;;;;959450;146;27424;-74
2023/08/01 00:06:13;;;;;;;2.80;2.50;;;19.70;98.60;;;;;;955517;147;27386;-74
2023/08/01 00:08:39;;;;;;;2.75;2.30;;;19.70;98.60;;;;;;958298;148;27304;-74
2023/08/01 00:11:06;;;;;;;4.37;2.75;;;19.70;98.80;;;;;;959487;148;27299;-74
2023/08/01 00:13:32;;;;;;;2.98;2.67;;;19.70;98.90;;;;;;959201;148;27304;-74
2023/08/01 00:15:59;;;;;;;4.35;2.70;;;19.70;99.00;;;;;;958826;148;27749;-74
2023/08/01 00:18:25;;;;;;;2.40;2.15;;;19.70;99.20;;;;;;958577;148;27308;-74
2023/08/01 00:20:55;;;;;;;3.45;2.62;;;19.70;99.40;;;;;;959055;146;27298;-74
2023/08/01 00:23:21;;;;;;;3.10;2.35;;;19.60;99.50;;;;;;959479;148;27358;-74
2023/08/01 00:25:51;;;;;;;3.05;2.60;;;19.60;99.90;;;;;;959576;148;27349;-74
2023/08/01 00:28:17;;;;;;;3.08;2.30;;;19.60;99.90;;;;;;958549;148;27428;-74
2023/08/01 00:30:44;;;;;;;3.55;2.58;;;19.50;99.90;;;;;;957962;146;27355;-74
2023/08/01 00:33:10;;;;;;;2.83;2.60;;;19.50;99.90;;;;;;958870;148;27307;-74
2023/08/01 00:35:37;;;;;;;3.45;2.27;;;19.50;99.90;;;;;;959721;148;27303;-74
2023/08/01 00:38:04;;;;;;;2.75;2.50;;;19.50;99.90;;;;;;959526;148;27323;-74
2023/08/01 00:40:33;;;;;;;3.08;2.60;;;19.50;99.90;;;;;;959143;146;27342;-74
2023/08/01 00:42:59;;;;;;;3.05;2.45;;;19.50;99.90;;;;;;958882;148;27323;-74
2023/08/01 00:45:29;;;;;;;3.30;2.60;;;19.50;99.90;;;;;;960033;149;27333;-74
2023/08/01 00:47:56;;;;;;;2.45;2.20;;;19.40;99.90;;;;;;958624;146;27444;-74
2023/08/01 00:50:22;;;;;;;2.42;2.22;;;19.40;99.90;;;;;;958470;146;27432;-74
2023/08/01 00:52:49;;;;;;;3.08;2.37;;;19.40;99.90;;;;;;959439;148;27292;-74
2023/08/01 00:55:15;;;;;;;2.60;2.33;;;19.40;99.90;;;;;;958564;148;27422;-74
2023/08/01 00:57:42;;;;;;;3.87;2.60;;;19.40;99.90;;;;;;959375;148;27335;-74
2023/08/01 01:00:09;;;;;;;3.52;2.47;;;19.40;99.90;;;;;;959117;146;27354;-74
2023/08/01 01:02:35;;;;;;;2.52;2.20;;;19.40;99.90;;;;;;958501;148;27466;-74
2023/08/01 01:05:02;;;;;;;3.87;2.52;;;19.40;99.90;;;;;;959548;148;27417;-74
2023/08/01 01:07:28;;;;;;;2.17;2.05;;;19.40;99.90;;;;;;955707;148;27300;-74
2023/08/01 01:09:55;;;;;;;2.85;2.50;;;19.40;99.90;;;;;;952204;148;27304;-74
2023/08/01 01:12:22;;;;;;;2.40;2.15;;;19.40;99.90;;;;;;952488;148;27723;-74
2023/08/01 01:14:48;;;;;;;3.17;2.20;;;19.40;99.90;;;;;;952857;148;28088;-74
2023/08/01 01:17:15;;;;;;;3.35;2.60;;;19.40;99.90;;;;;;952784;148;27265;-74
2023/08/01 01:19:41;;;;;;;2.83;2.60;;;19.40;99.90;;;;;;952514;147;27315;-74
2023/08/01 01:22:08;;;;;;;3.02;2.58;;;19.40;99.90;;;;;;952922;148;27350;-74
2023/08/01 01:24:34;;;;;;;3.40;2.52;;;19.40;99.90;;;;;;950920;149;27375;-74
2023/08/01 01:27:03;;;;;;;2.72;2.33;;;19.40;99.90;;;;;;952946;149;27246;-74
2023/08/01 01:29:28;;;;;;;4.92;3.08;;;19.40;99.90;;;;;;953157;149;27337;-74
2023/08/01 01:31:54;;;;;;;2.75;2.55;;;19.40;99.90;;;;;;952104;147;27304;-74
2023/08/01 01:34:21;;;;;;;4.45;3.15;;;19.40;99.90;;;;;;950631;147;27384;-74
2023/08/01 01:36:47;;;;;;;2.87;2.55;;;19.40;99.90;;;;;;951081;147;27340;-74
2023/08/01 01:39:14;;;;;;;3.15;2.70;;;19.40;99.90;;;;;;926587;150;27443;-74
2023/08/01 01:41:41;;;;;;;4.12;2.55;;;19.40;99.90;;;;;;950819;147;27280;-74
2023/08/01 01:44:07;;;;;;;4.87;2.85;;;19.40;99.90;;;;;;950100;147;27322;-74
2023/08/01 01:46:34;;;;;;;3.22;2.75;;;19.50;99.90;;;;;;949735;146;27378;-74
2023/08/01 01:49:00;;;;;;;3.27;2.70;;;19.50;99.90;;;;;;934269;150;27383;-74
2023/08/01 01:51:27;;;;;;;3.17;2.45;;;19.50;99.90;;;;;;951198;147;27317;-74
2023/08/01 01:53:54;;;;;;;2.80;2.58;;;19.50;99.90;;;;;;950775;147;27273;-74
2023/08/01 01:56:20;;;;;;;3.25;2.60;;;19.50;99.90;;;;;;950301;147;27429;-74
2023/08/01 01:58:47;;;;;;;3.20;2.58;;;19.40;99.90;;;;;;929803;149;27379;-74
2023/08/01 02:01:13;;;;;;;4.37;2.70;;;19.50;99.90;;;;;;950110;147;27332;-74
2023/08/01 02:03:40;;;;;;;4.10;3.02;;;19.50;99.90;;;;;;951172;147;27376;-74
2023/08/01 02:06:07;;;;;;;4.17;3.45;;;19.50;99.90;;;;;;933147;149;27350;-74
2023/08/01 02:08:33;;;;;;;4.15;3.30;;;19.50;99.90;;;;;;934588;149;27420;-74
2023/08/01 02:11:00;;;;;;;3.12;2.80;;;19.50;99.90;;;;;;949951;147;27307;-74
2023/08/01 02:13:26;;;;;;;2.92;2.70;;;19.50;99.90;;;;;;927792;150;27300;-74
2023/08/01 02:15:53;;;;;;;4.28;2.83;;;19.50;99.90;;;;;;942499;149;27410;-74
2023/08/01 02:18:19;;;;;;;3.22;2.92;;;19.50;99.90;;;;;;943108;149;27434;-74
2023/08/01 02:20:46;;;;;;;3.55;3.22;;;19.50;99.90;;;;;;942607;149;27419;-74
2023/08/01 02:23:13;;;;;;;4.87;2.77;;;19.60;99.90;;;;;;942220;149;27453;-74
2023/08/01 02:25:40;;;;;;;2.98;2.45;;;19.60;99.90;;;;;;942951;149;27475;-74
2023/08/01 02:28:06;;;;;;;3.05;2.75;;;19.60;99.90;;;;;;927105;150;27332;-74
2023/08/01 02:30:32;;;;;;;4.60;2.90;;;19.60;99.90;;;;;;928060;150;27399;-74
2023/08/01 02:32:59;;;;;;;2.98;2.67;;;19.60;99.90;;;;;;945781;149;27269;-74
2023/08/01 02:35:28;;;;;;;3.90;3.10;;;19.70;99.90;;;;;;946156;149;27400;-74
2023/08/01 02:37:52;;;;;;;3.77;3.00;;;19.70;99.90;;;;;;945856;149;27476;-74
2023/08/01 02:40:19;;;;;;;3.60;2.98;;;19.70;99.90;;;;;;946357;149;27407;-74
2023/08/01 02:42:45;;;;;;;3.25;2.95;;;19.70;99.90;;;;;;946073;149;27353;-74
2023/08/01 02:45:12;;;;;;;4.03;3.22;;;19.70;99.90;;;;;;945746;149;27504;-74
2023/08/01 02:47:39;;;;;;;3.58;2.83;;;19.70;99.90;;;;;;945552;148;27372;-74
2023/08/01 02:50:05;;;;;;;2.55;2.20;;;19.70;99.90;;;;;;945581;149;27485;-74
2023/08/01 02:52:32;;;;;;;4.28;3.17;;;19.70;99.90;;;;;;945738;149;27779;-74
2023/08/01 02:54:58;;;;;;;2.67;2.47;;;19.70;99.90;;;;;;946377;149;27332;-71
2023/08/01 02:57:25;;;;;;;2.67;2.47;;;19.70;99.90;;;;;;946678;149;27343;-74
2023/08/01 02:59:52;;;;;;;3.65;2.40;;;19.70;99.90;;;;;;945700;149;27361;-74
2023/08/01 03:02:18;;;;;;;2.35;2.15;;;19.70;99.90;;;;;;946011;149;27438;-74
2023/08/01 03:04:45;;;;;;;3.40;2.50;;;19.70;99.90;;;;;;946121;149;27438;-74
2023/08/01 03:07:11;;;;;;;2.37;2.17;;;19.70;99.90;;;;;;946140;149;27302;-74
2023/08/01 03:09:38;;;;;;;2.70;2.50;;;19.70;99.90;;;;;;944445;149;27400;-74
2023/08/01 03:12:05;;;;;;;2.30;2.10;;;19.70;99.90;;;;;;955330;147;27367;-74
2023/08/01 03:14:32;;;;;;;2.60;2.10;;;19.70;99.90;;;;;;928213;151;27399;-74
2023/08/01 03:16:58;;;;;;;2.42;2.20;;;19.70;99.90;;;;;;954941;148;27342;-75
2023/08/01 03:19:24;;;;;;;2.50;2.30;;;19.70;99.90;;;;;;954568;147;27421;-75
2023/08/01 03:21:51;;;;;;;2.60;2.40;;;19.70;99.90;;;;;;931375;150;27344;-74
2023/08/01 03:24:17;;;;;;;3.37;2.10;;;19.70;99.90;;;;;;943596;151;27290;-74
2023/08/01 03:26:44;;;;;;;3.85;2.40;;;19.70;99.90;;;;;;947772;148;27333;-74
2023/08/01 03:29:11;;;;;;;2.70;2.50;;;19.80;99.90;;;;;;947645;148;27311;-74
2023/08/01 03:31:37;;;;;;;2.08;1.98;;;19.80;99.90;;;;;;947223;148;27336;-74
2023/08/01 03:34:04;;;;;;;2.02;1.65;;;19.80;99.90;;;;;;947557;148;27413;-74
2023/08/01 03:36:30;;;;;;;2.20;1.80;;;19.80;99.90;;;;;;947630;148;27319;-74
2023/08/01 03:38:57;;;;;;;2.58;1.90;;;19.80;99.90;;;;;;947674;151;27299;-74
2023/08/01 03:41:24;;;;;;;2.72;1.95;;;19.80;99.90;;;;;;947389;148;27314;-74
2023/08/01 03:43:50;;;;;;;2.55;2.00;;;19.80;99.90;;;;;;947708;148;27384;-74
2023/08/01 03:46:17;;;;;;;2.00;1.80;;;19.80;99.90;;;;;;947576;151;27300;-74
2023/08/01 03:48:43;;;;;;;2.12;1.82;;;19.90;99.90;;;;;;954525;148;27347;-74
2023/08/01 03:51:10;;;;;;;3.50;2.60;;;19.90;99.90;;;;;;930279;151;27292;-75
2023/08/01 03:53:37;;;;;;;2.70;1.92;;;19.90;99.90;;;;;;940320;151;27431;-75
2023/08/01 03:56:03;;;;;;;2.60;2.40;;;19.90;99.90;;;;;;940876;152;27345;-74
2023/08/01 03:58:30;;;;;;;2.95;2.02;;;20.00;99.90;;;;;;939815;152;27369;-74
2023/08/01 04:00:56;;;;;;;2.50;2.30;;;20.00;99.90;;;;;;939650;152;27305;-74
2023/08/01 04:03:23;;;;;;;2.02;1.92;;;20.00;99.90;;;;;;939676;150;27451;-74
2023/08/01 04:05:49;;;;;;;2.40;2.00;;;20.00;99.90;;;;;;939870;152;27358;-74
2023/08/01 04:08:16;;;;;;;2.83;2.22;;;20.00;99.90;;;;;;940166;152;27431;-74
2023/08/01 04:10:43;;;;;;;2.72;1.85;;;20.00;99.90;;;;;;941808;149;27881;-74
2023/08/01 04:13:09;;;;;;;2.25;2.05;;;20.00;99.90;;;;;;934892;150;27790;-74
2023/08/01 04:15:36;;;;;;;2.33;2.12;;;20.00;99.90;;;;;;951215;147;27317;-75
2023/08/01 04:18:02;;;;;;;2.87;2.20;;;20.00;99.90;;;;;;950893;147;27328;-75
2023/08/01 04:20:29;;;;;;;2.30;2.10;;;20.00;99.90;;;;;;944361;148;27356;-74
2023/08/01 04:22:56;;;;;;;2.10;1.95;;;20.00;99.90;;;;;;946540;149;27332;-75
2023/08/01 04:25:24;;;;;;;2.45;2.00;;;20.00;99.90;;;;;;946452;149;27331;-74
2023/08/01 04:27:49;;;;;;;1.87;1.77;;;20.00;99.90;;;;;;944706;149;27360;-74
2023/08/01 04:30:15;;;;;;;4.12;2.40;;;20.00;99.90;;;;;;946039;149;27437;-74
2023/08/01 04:32:42;;;;;;;2.50;2.25;;;20.00;99.90;;;;;;945385;149;27333;-75
2023/08/01 04:35:09;;;;;;;2.08;1.98;;;20.00;99.90;;;;;;946376;149;27420;-74
2023/08/01 04:37:35;;;;;;;2.75;2.22;;;20.00;99.90;;;;;;946825;149;27368;-74
2023/08/01 04:40:02;;;;;;;2.45;2.05;;;20.00;99.90;;;;;;945867;149;27368;-74
2023/08/01 04:42:28;;;;;;;2.30;2.10;;;20.00;99.90;;;;;;945806;149;27258;-74
2023/08/01 04:44:55;;;;;;;2.83;2.50;;;20.00;99.90;;;;;;945275;149;27390;-74
2023/08/01 04:47:21;;;;;;;2.30;2.10;;;20.00;99.90;;;;;;945757;149;27444;-74
2023/08/01 04:49:48;;;;;;;2.20;2.00;;;20.00;99.90;;;;;;944735;149;27359;-74
2023/08/01 04:52:15;;;;;;;3.25;2.17;;;20.00;99.90;;;;;;945915;149;27282;-75
2023/08/01 04:54:41;;;;;;;2.92;2.30;;;20.00;99.90;;;;;;946093;149;27729;-75
2023/08/01 04:57:08;;;;;;;3.37;2.02;;;20.00;99.90;;;;;;945952;149;27429;-75
2023/08/01 04:59:34;;;;;;;2.45;2.25;;;20.00;99.90;;;;;;945749;149;27929;-75
2023/08/01 05:02:01;;;;;;;2.37;2.05;;;20.00;99.90;;;;;;946288;149;27412;-74
2023/08/01 05:04:28;;;;;;;3.10;2.08;;;20.00;99.90;;;;;;945502;149;27336;-74
2023/08/01 05:06:54;;;;;;;2.22;1.90;;;19.90;99.90;;;;;;946011;149;27325;-75
2023/08/01 05:09:21;;;;;;;2.00;1.90;;;19.90;99.90;;;;;;946138;149;27359;-75
2023/08/01 05:11:47;;;;;;;2.08;1.87;;;19.90;99.90;;;;;;943402;149;27400;-74
2023/08/01 05:14:14;;;;;;;2.37;2.15;;;19.90;99.90;;;;;;943307;149;27366;-74
2023/08/01 05:16:41;;;;;;;2.20;2.00;;;19.90;99.90;;;;;;940653;150;27419;-75
2023/08/01 05:19:07;;;;;;;2.65;2.12;;;19.90;99.90;;;;;;939994;152;27365;-74
2023/08/01 05:21:34;;;;;;;2.15;1.82;;;19.90;99.90;;;;;;939890;149;27378;-75
2023/08/01 05:24:00;;;;;;;2.42;2.00;;;19.90;99.90;;;;;;954596;150;27312;-75
2023/08/01 05:26:27;;;;;;;3.75;1.92;;;19.90;99.90;;;;;;953796;147;27361;-75
2023/08/01 05:28:54;;;;;;;2.90;1.70;;;19.90;99.90;;;;;;935286;150;27844;-75
2023/08/01 05:31:20;;;;;;;2.65;1.98;;;19.90;99.90;;;;;;927445;151;27490;-75
2023/08/01 05:33:47;;;;;;;2.27;2.08;;;19.90;99.90;;;;;;954815;148;27423;-75
2023/08/01 05:36:13;;;;;;;1.90;1.70;;;19.90;99.90;;;;;;955318;147;27427;-75
2023/08/01 05:38:40;;;;;;;2.00;1.65;;;19.90;99.90;;;;;;938272;150;27303;-75
2023/08/01 05:41:06;;;;;;;2.25;1.52;;;19.90;99.90;;;;;;938576;150;27356;-75
2023/08/01 05:43:33;;;;;;;1.85;1.75;;;19.90;99.90;;;;;;954729;147;27328;-75
2023/08/01 05:46:00;;;;;;;3.17;1.82;;;19.90;99.90;;;;;;954846;148;27328;-75
2023/08/01 05:48:26;;;;;;;2.05;1.70;;;19.90;99.90;;;;;;937992;150;27453;-74
2023/08/01 05:50:55;;;;;;;2.25;2.00;;;19.90;99.90;;;;;;937588;150;27366;-75
2023/08/01 05:53:19;;;;;;;2.77;2.47;;;19.90;99.90;;;;;;954063;147;27336;-75
2023/08/01 05:55:46;;;;;;;2.87;2.20;;;19.90;99.90;;;;;;937795;151;28012;-74
2023/08/01 05:58:13;;;;;;;2.95;2.65;;;19.90;99.90;;;;;;930939;151;27425;-74
2023/08/01 06:00:39;;;;;;;2.50;2.30;;;19.90;99.90;;;;;;954088;147;27287;-75
2023/08/01 06:03:06;;;;;;;2.40;2.20;;;19.90;99.90;;;;;;937496;150;27340;-75
2023/08/01 06:05:32;;;;;;;3.22;2.60;;;19.90;99.90;;;;;;954744;148;27431;-75
2023/08/01 06:07:59;;;;;;;4.72;2.55;;;19.90;99.90;;;;;;937252;152;27454;-75
2023/08/01 06:10:26;;;;;;;2.00;1.90;;;19.90;99.90;;;;;;955709;145;29113;-75
2023/08/01 06:12:52;;;;;;;4.62;3.25;;;19.90;99.90;;;;;;968287;145;27902;-74
2023/08/01 06:15:19;;;;;;;2.72;2.52;;;19.90;99.90;;;;;;970253;145;27402;-74
2023/08/01 06:17:45;;;;;;;2.60;2.40;;;19.90;99.90;;;;;;949298;148;27380;-76
2023/08/01 06:20:12;;;;;;;2.50;2.30;;;19.80;99.90;;;;;;951009;148;27464;-75
2023/08/01 06:22:38;;;;;;;2.40;2.20;;;19.80;99.90;;;;;;968311;145;27410;-75
2023/08/01 06:25:05;;;;;;;2.60;2.40;;;19.80;99.90;;;;;;968372;145;27395;-75
2023/08/01 06:27:32;;;;;;;2.70;2.50;;;19.80;99.90;;;;;;948741;148;27370;-74
2023/08/01 06:29:58;;;;;;;4.70;2.55;;;19.70;99.90;;;;;;965427;146;27345;-74
2023/08/01 06:32:25;;;;;;;2.92;2.67;;;19.70;99.90;;;;;;951716;148;27336;-74
2023/08/01 06:34:51;;;;;;;2.80;2.60;;;19.70;99.90;;;;;;968249;145;27317;-72
2023/08/01 06:37:18;;;;;;;3.15;2.20;;;19.70;99.90;;;;;;968225;145;27333;-73
2023/08/01 06:39:45;;;;;;;13.10;4.30;;;19.70;99.90;;;;;;969844;145;27450;-72
2023/08/01 06:42:11;;;;;;;2.87;2.58;;;19.80;99.90;;;;;;950551;148;27344;-72
2023/08/01 06:44:38;;;;;;;2.33;2.12;;;19.80;99.90;;;;;;968199;145;27805;-73
2023/08/01 06:47:04;;;;;;;2.15;2.05;;;19.80;99.90;;;;;;967036;145;27318;-72
2023/08/01 06:49:31;;;;;;;2.52;2.33;;;19.80;99.90;;;;;;967471;145;27425;-73
2023/08/01 06:51:58;;;;;;;2.10;1.90;;;19.90;99.90;;;;;;966390;145;27334;-73
2023/08/01 06:54:24;;;;;;;2.37;1.75;;;19.90;99.90;;;;;;966982;145;27263;-73
2023/08/01 06:56:51;;;;;;;2.02;1.82;;;19.90;99.90;;;;;;967194;145;27379;-72
2023/08/01 06:59:17;;;;;;;1.80;1.70;;;20.00;99.90;;;;;;967174;145;27384;-72
2023/08/01 07:01:44;;;;;;;2.58;1.82;;;20.00;99.90;;;;;;966570;145;27344;-73
2023/08/01 07:04:11;;;;;;;2.12;1.92;;;20.10;99.90;;;;;;966424;145;27431;-73
2023/08/01 07:06:37;;;;;;;1.85;1.75;;;20.10;99.90;;;;;;950154;148;27348;-73
2023/08/01 07:09:04;;;;;;;1.67;1.57;;;20.20;99.90;;;;;;967660;145;27474;-73
2023/08/01 07:11:30;;;;;;;2.08;1.70;;;20.20;99.90;;;;;;966292;145;27502;-73
2023/08/01 07:13:57;;;;;;;1.70;1.60;;;20.30;99.90;;;;;;966100;145;27506;-72
2023/08/01 07:16:23;;;;;;;2.20;1.98;;;20.40;99.90;;;;;;945947;149;27411;-72
2023/08/01 07:18:50;;;;;;;1.98;1.77;;;20.40;99.90;;;;;;963503;146;27267;-73
2023/08/01 07:21:17;;;;;;;1.82;1.42;;;20.40;99.90;;;;;;944284;148;27473;-72
2023/08/01 07:23:43;;;;;;;1.25;1.15;;;20.40;99.90;;;;;;962480;146;27309;-73
2023/08/01 07:26:10;;;;;;;1.60;1.50;;;20.30;99.90;;;;;;963964;146;27309;-72
2023/08/01 07:28:36;;;;;;;1.20;1.10;;;20.30;99.90;;;;;;963637;146;27398;-72
2023/08/01 07:31:04;;;;;;;1.20;1.10;;;20.30;99.90;;;;;;945611;148;27372;-72
2023/08/01 07:33:30;;;;;;;1.27;1.17;;;20.20;99.90;;;;;;962137;146;28235;-72
2023/08/01 07:35:56;;;;;;;0.60;0.60;;;20.10;99.90;;;;;;946802;148;27457;-72
2023/08/01 07:38:23;;;;;;;2.62;1.40;;;20.10;99.90;;;;;;945649;149;27692;-72
2023/08/01 07:40:49;;;;;;;1.55;1.12;;;20.10;99.90;;;;;;962999;146;27303;-73
2023/08/01 07:43:16;;;;;;;1.10;1.10;;;20.10;99.90;;;;;;963663;146;27338;-72
2023/08/01 07:45:43;;;;;;;0.93;0.90;;;20.10;99.90;;;;;;963582;145;27411;-73
2023/08/01 07:48:09;;;;;;;1.00;1.00;;;20.20;99.90;;;;;;963434;146;27505;-73
2023/08/01 07:50:36;;;;;;;2.40;1.20;;;20.20;99.90;;;;;;946684;148;27321;-72
2023/08/01 07:53:02;;;;;;;0.90;0.90;;;20.30;99.90;;;;;;947370;148;27423;-73
2023/08/01 07:55:29;;;;;;;0.98;0.95;;;20.30;99.90;;;;;;945029;149;27465;-72
2023/08/01 07:57:56;;;;;;;4.75;2.22;;;20.30;99.90;;;;;;963517;146;27298;-73
2023/08/01 08:00:22;;;;;;;1.65;1.15;;;20.40;99.90;;;;;;963675;146;27267;-73
2023/08/01 08:02:49;;;;;;;1.10;1.00;;;20.50;99.90;;;;;;942701;149;28003;-73
2023/08/01 08:05:15;;;;;;;1.25;1.15;;;20.60;99.90;;;;;;962712;146;27470;-73
2023/08/01 08:07:42;;;;;;;0.80;0.80;;;20.60;99.90;;;;;;962405;146;27433;-73
2023/08/01 08:10:08;;;;;;;1.07;1.07;;;20.70;99.90;;;;;;963529;146;27394;-73
2023/08/01 08:12:35;;;;;;;1.45;1.00;;;20.80;99.90;;;;;;964464;146;27367;-73
2023/08/01 08:15:02;;;;;;;1.32;1.22;;;20.90;99.90;;;;;;963438;145;27776;-73
2023/08/01 08:17:28;;;;;;;1.10;1.02;;;21.00;99.90;;;;;;963654;146;27343;-73
2023/08/01 08:19:55;;;;;;;1.12;0.93;;;21.10;99.90;;;;;;963615;146;27374;-73
2023/08/01 08:22:21;;;;;;;1.98;1.52;;;21.10;99.90;;;;;;963653;145;27309;-73
2023/08/01 08:24:48;;;;;;;1.45;0.98;;;21.20;99.90;;;;;;963756;146;27369;-73
2023/08/01 08:27:15;;;;;;;0.78;0.78;;;21.30;99.90;;;;;;945086;148;27365;-73
2023/08/01 08:29:41;;;;;;;1.20;0.80;;;21.40;99.90;;;;;;962403;146;27237;-73
2023/08/01 08:32:08;;;;;;;1.02;0.88;;;21.60;99.90;;;;;;953308;147;27339;-73
2023/08/01 08:34:34;;;;;;;0.88;0.80;;;21.90;99.90;;;;;;963807;146;27421;-73
2023/08/01 08:37:01;;;;;;;0.78;0.78;;;22.40;99.90;;;;;;963321;146;27336;-73
2023/08/01 08:39:28;;;;;;;0.70;0.60;;;22.90;99.90;;;;;;946095;148;27774;-73
2023/08/01 08:41:54;;;;;;;0.72;0.72;;;23.50;99.90;;;;;;962266;146;28023;-73
2023/08/01 08:44:21;;;;;;;1.45;0.62;;;24.30;99.90;;;;;;953724;147;27335;-73
2023/08/01 08:46:51;;;;;;;0.62;0.50;;;25.40;99.90;;;;;;955079;148;27340;-73
2023/08/01 08:49:19;;;;;;;1.10;0.75;;;26.60;99.90;;;;;;961833;146;27253;-74
2023/08/01 08:51:44;;;;;;;1.05;0.80;;;27.90;99.90;;;;;;944363;148;27291;-74
2023/08/01 08:54:10;;;;;;;0.60;0.60;;;29.20;99.90;;;;;;962011;146;26344;-74
2023/08/01 08:56:38;;;;;;;0.68;0.68;;;30.50;99.90;;;;;;945013;148;26279;-74
2023/08/01 08:59:03;;;;;;;0.90;0.53;;;31.70;99.90;;;;;;962781;146;26339;-74
2023/08/01 09:01:31;;;;;;;0.50;0.50;;;32.80;94.70;;;;;;941522;148;26254;-75
2023/08/01 09:03:57;;;;;;;0.60;0.60;;;33.70;90.50;;;;;;945965;148;26363;-74
2023/08/01 09:06:29;;;;;;;0.50;0.50;;;34.40;86.00;;;;;;946122;148;26345;-74
2023/08/01 09:09:07;;;;;;;0.40;0.40;;;35.20;80.60;;;;;;962971;146;26272;-74
2023/08/01 09:11:43;;;;;;;1.02;0.80;;;35.70;75.10;;;;;;962271;146;26268;-74
2023/08/01 09:14:10;;;;;;;0.80;0.78;;;36.30;70.00;;;;;;948116;148;26300;-74
2023/08/01 09:16:36;;;;;;;1.17;1.07;;;36.50;66.40;;;;;;962748;146;26341;-74
2023/08/01 09:19:03;;;;;;;0.65;0.65;;;36.60;63.80;;;;;;963526;145;26216;-75
2023/08/01 09:21:30;;;;;;;1.20;1.10;;;36.60;62.40;;;;;;963326;146;26255;-75
2023/08/01 09:23:56;;;;;;;1.85;0.88;;;36.70;61.10;;;;;;962479;146;26599;-75
2023/08/01 09:26:23;;;;;;;0.78;0.78;;;36.80;61.60;;;;;;945842;148;26294;-75
2023/08/01 09:28:55;;;;;;;1.12;0.98;;;37.00;61.70;;;;;;946766;148;26286;-75
2023/08/01 09:31:31;;;;;;;2.45;0.88;;;37.10;60.50;;;;;;947110;148;26385;-75
2023/08/01 09:33:58;;;;;;;0.78;0.78;;;37.10;58.70;;;;;;942535;149;26452;-75
2023/08/01 09:36:25;;;;;;;1.22;1.05;;;37.00;56.70;;;;;;963895;146;26220;-75
2023/08/01 09:38:51;;;;;;;0.82;0.82;;;36.70;55.80;;;;;;962276;146;26364;-75
2023/08/01 09:41:17;;;;;;;0.72;0.72;;;36.40;56.30;;;;;;941144;148;26243;-75
2023/08/01 09:43:44;;;;;;;1.12;1.02;;;36.00;55.50;;;;;;946330;148;26270;-75
2023/08/01 09:46:11;;;;;;;1.10;1.10;;;35.60;54.90;;;;;;962950;146;27311;-74
2023/08/01 09:48:37;;;;;;;0.95;0.95;;;35.10;54.70;;;;;;947026;148;27331;-75
2023/08/01 09:51:05;;;;;;;1.22;0.90;;;34.60;54.60;;;;;;947701;148;27454;-75
2023/08/01 09:53:30;;;;;;;0.72;0.72;;;34.20;55.70;;;;;;945931;148;27306;-75
2023/08/01 09:55:57;;;;;;;1.17;1.00;;;33.80;57.00;;;;;;946071;148;27350;-75
2023/08/01 09:58:23;;;;;;;1.00;0.90;;;33.60;56.60;;;;;;961875;146;27353;-75
2023/08/01 10:00:50;;;;;;;0.70;0.70;;;33.40;57.30;;;;;;940293;148;26294;-75
2023/08/01 10:03:17;;;;;;;0.90;0.68;;;33.40;58.00;;;;;;963373;146;26218;-75
2023/08/01 10:05:43;;;;;;;0.70;0.70;;;33.50;58.30;;;;;;953120;147;26248;-75
2023/08/01 10:08:10;;;;;;;1.10;0.98;;;33.70;58.60;;;;;;963143;146;26344;-74
2023/08/01 10:10:36;;;;;;;0.93;0.50;;;33.80;58.30;;;;;;966201;145;26237;-75
2023/08/01 10:13:03;;;;;;;0.80;0.68;;;34.00;57.50;;;;;;964389;145;27383;-75
2023/08/01 10:15:30;;;;;;;0.82;0.82;;;34.10;56.90;;;;;;933465;149;27467;-74
2023/08/01 10:17:56;;;;;;;1.20;0.80;;;34.10;55.30;;;;;;932579;149;27391;-75
2023/08/01 10:20:23;;;;;;;2.00;1.90;;;33.90;54.60;;;;;;949720;146;27316;-75
2023/08/01 10:22:49;;;;;;;1.65;1.10;;;33.70;54.80;;;;;;949676;146;27420;-75
2023/08/01 10:25:16;;;;;;;1.32;1.05;;;33.40;54.90;;;;;;932217;149;27401;-74
2023/08/01 10:27:43;;;;;;;2.83;0.90;;;33.10;55.10;;;;;;954702;146;27324;-74
2023/08/01 10:30:09;;;;;;;0.70;0.70;;;32.90;55.10;;;;;;949572;146;27299;-75
2023/08/01 10:32:39;;;;;;;0.98;0.60;;;32.80;55.00;;;;;;953447;147;27289;-75
2023/08/01 10:35:06;;;;;;;1.00;0.90;;;32.60;55.20;;;;;;954139;147;27477;-75
2023/08/01 10:37:45;;;;;;;0.70;0.70;;;32.50;55.30;;;;;;954558;147;27372;-75
2023/08/01 10:40:10;;;;;;;1.75;0.60;;;32.40;55.20;;;;;;954348;147;27465;-75
2023/08/01 10:42:43;;;;;;;0.80;0.80;;;32.30;55.00;;;;;;953602;147;27421;-75
2023/08/01 10:45:21;;;;;;;0.90;0.90;;;32.20;54.60;;;;;;933034;149;27670;-75
2023/08/01 10:47:48;;;;;;;0.82;0.80;;;32.10;54.40;;;;;;949183;146;27375;-75
2023/08/01 10:50:15;;;;;;;0.78;0.78;;;31.90;54.00;;;;;;949748;146;27324;-74
2023/08/01 10:52:41;;;;;;;0.88;0.70;;;31.60;53.50;;;;;;932850;149;27840;-75
2023/08/01 10:55:07;;;;;;;0.80;0.80;;;31.30;53.50;;;;;;949663;146;27400;-75
2023/08/01 10:57:37;;;;;;;2.27;1.05;;;30.90;53.80;;;;;;949371;146;27362;-74
2023/08/01 11:00:09;;;;;;;0.78;0.78;;;30.60;54.30;;;;;;950398;146;27347;-74
2023/08/01 11:02:30;;;;;;;1.25;0.90;;;30.30;55.00;;;;;;947917;146;27404;-74
2023/08/01 11:04:59;;;;;;;1.40;1.00;;;30.10;55.20;;;;;;932646;149;27458;-75
2023/08/01 11:07:26;;;;;;;1.17;0.80;;;29.80;55.30;;;;;;933678;149;27381;-74
2023/08/01 11:10:11;;;;;;;0.70;0.70;;;29.70;55.70;;;;;;950043;146;27420;-74
2023/08/01 11:12:41;;;;;;;1.30;1.00;;;29.60;55.80;;;;;;949231;146;27424;-74
2023/08/01 11:15:08;;;;;;;1.17;1.10;;;29.50;56.00;;;;;;928329;147;27440;-74
2023/08/01 11:17:34;;;;;;;1.22;0.90;;;29.40;55.90;;;;;;950534;147;27430;-74
2023/08/01 11:20:04;;;;;;;0.90;0.90;;;29.40;55.60;;;;;;947523;145;27362;-74
2023/08/01 11:22:30;;;;;;;1.25;1.07;;;29.40;55.60;;;;;;949743;147;27357;-74
2023/08/01 11:24:57;;;;;;;0.70;0.70;;;29.40;55.30;;;;;;925987;150;27345;-74
2023/08/01 11:27:23;;;;;;;1.07;0.88;;;29.30;55.20;;;;;;927777;149;27367;-74
2023/08/01 11:29:50;;;;;;;1.02;1.00;;;29.30;55.10;;;;;;949956;147;27403;-74
2023/08/01 11:32:17;;;;;;;1.25;1.15;;;29.30;55.00;;;;;;950230;147;27259;-74
2023/08/01 11:34:46;;;;;;;1.25;1.12;;;29.30;54.90;;;;;;926082;150;27391;-74
2023/08/01 11:37:10;;;;;;;2.10;1.10;;;29.20;54.90;;;;;;941010;149;27419;-74
2023/08/01 11:39:36;;;;;;;1.25;1.07;;;29.20;55.10;;;;;;942286;149;27436;-74
2023/08/01 11:42:03;;;;;;;1.17;1.10;;;29.20;54.70;;;;;;948344;147;27273;-74
2023/08/01 11:44:30;;;;;;;0.85;0.85;;;29.20;54.40;;;;;;949208;146;27396;-74
2023/08/01 11:46:56;;;;;;;0.80;0.80;;;29.20;54.40;;;;;;950580;147;27309;-74
2023/08/01 11:49:23;;;;;;;0.82;0.82;;;29.10;54.90;;;;;;933805;150;27495;-74
2023/08/01 11:51:49;;;;;;;1.20;0.90;;;29.10;54.90;;;;;;950011;147;27345;-74
2023/08/01 11:54:17;;;;;;;1.05;0.95;;;29.10;54.80;;;;;;950021;147;27328;-74
2023/08/01 11:56:43;;;;;;;0.90;0.90;;;29.20;54.80;;;;;;948304;147;27314;-74
2023/08/01 11:59:12;;;;;;;0.80;0.80;;;29.20;54.70;;;;;;933040;149;27358;-74
2023/08/01 12:01:39;;;;;;;1.37;1.32;;;29.20;54.60;;;;;;949685;147;27477;-74
2023/08/01 12:04:05;;;;;;;1.20;1.10;;;29.30;54.30;;;;;;949835;147;27329;-74
2023/08/01 12:06:32;;;;;;;1.17;1.00;;;29.20;53.90;;;;;;934191;149;27344;-74
2023/08/01 12:08:58;;;;;;;1.70;1.10;;;29.20;53.60;;;;;;949815;147;27335;-74
2023/08/01 12:11:26;;;;;;;1.12;1.00;;;29.10;53.20;;;;;;948174;147;27341;-74
2023/08/01 12:14:01;;;;;;;1.82;1.10;;;29.00;53.40;;;;;;949254;147;27332;-74
2023/08/01 12:16:27;;;;;;;2.20;0.98;;;28.90;53.20;;;;;;945560;149;27413;-74
2023/08/01 12:18:54;;;;;;;1.30;1.20;;;28.80;53.60;;;;;;963284;146;27319;-74
2023/08/01 12:21:21;;;;;;;0.82;0.82;;;28.60;53.60;;;;;;963245;146;27389;-74
2023/08/01 12:23:47;;;;;;;0.95;0.95;;;28.60;53.60;;;;;;946959;148;27422;-74
2023/08/01 12:26:14;;;;;;;1.10;0.80;;;28.50;53.40;;;;;;941790;149;27356;-74
2023/08/01 12:28:40;;;;;;;0.88;0.70;;;28.50;53.60;;;;;;963721;146;27334;-74
2023/08/01 12:31:07;;;;;;;0.85;0.82;;;28.50;53.70;;;;;;962723;146;27249;-74
2023/08/01 12:33:34;;;;;;;0.82;0.80;;;28.50;53.90;;;;;;962679;146;27316;-75
2023/08/01 12:36:00;;;;;;;1.17;1.07;;;28.60;54.10;;;;;;963004;146;27512;-75
2023/08/01 12:38:27;;;;;;;1.20;1.10;;;28.70;53.80;;;;;;962574;146;27259;-75
2023/08/01 12:40:53;;;;;;;0.82;0.82;;;28.80;53.60;;;;;;963080;146;27264;-74
2023/08/01 12:43:20;;;;;;;1.92;1.47;;;28.90;53.50;;;;;;964470;146;27396;-74
2023/08/01 12:45:48;;;;;;;1.20;1.07;;;28.90;53.30;;;;;;964683;146;27423;-74